createdAt,value
2023-05-21T00:01:01.341Z,88.00
2023-05-21T00:04:15.813Z,87.91
2023-05-21T00:07:21.210Z,87.39
2023-05-21T00:10:24.159Z,87.14
2023-05-21T00:13:27.156Z,87.25
2023-05-21T00:16:30.103Z,87.46
2023-05-21T00:19:36.183Z,87.33
2023-05-21T00:22:40.417Z,87.38
2023-05-21T00:25:43.274Z,87.39
2023-05-21T00:28:46.108Z,87.42
2023-05-21T00:31:50.524Z,87.34
2023-05-21T00:34:53.546Z,87.63
2023-05-21T00:37:57.415Z,87.88
2023-05-21T00:41:02.962Z,87.94
2023-05-21T00:44:07.354Z,87.98
2023-05-21T00:47:10.361Z,88.07
2023-05-21T00:50:15.258Z,88.13
2023-05-21T00:53:19.576Z,88.17
2023-05-21T00:56:24.169Z,89.22
2023-05-21T00:59:36.062Z,89.03
2023-05-21T01:02:39.261Z,88.70
2023-05-21T01:05:45.265Z,88.73
2023-05-21T01:08:48.178Z,88.59
2023-05-21T01:11:53.247Z,89.04
2023-05-21T01:14:57.767Z,88.73
2023-05-21T01:18:00.886Z,88.62
2023-05-21T01:21:05.224Z,89.11
2023-05-21T01:24:08.222Z,88.74
2023-05-21T01:27:11.093Z,88.65
2023-05-21T01:30:15.373Z,88.60
2023-05-21T01:33:38.238Z,88.82
2023-05-21T01:36:46.644Z,88.82
2023-05-21T01:40:00.265Z,88.82
2023-05-21T01:43:05.859Z,89.04
2023-05-21T01:46:13.143Z,89.01
2023-05-21T01:49:17.893Z,89.02
2023-05-21T01:52:20.798Z,88.88
2023-05-21T01:55:24.915Z,89.07
2023-05-21T01:58:27.982Z,89.08
2023-05-21T02:01:31.277Z,88.95
2023-05-21T02:04:34.267Z,90.63
2023-05-21T02:07:37.637Z,89.90
2023-05-21T02:10:40.795Z,91.35
2023-05-21T02:13:46.195Z,91.82
2023-05-21T02:16:49.253Z,90.79
2023-05-21T02:19:52.548Z,90.44
2023-05-21T02:22:55.793Z,95.06
2023-05-21T02:25:58.991Z,93.40
2023-05-21T02:29:02.738Z,91.93
2023-05-21T02:32:06.114Z,91.18
2023-05-21T02:35:10.823Z,90.92
2023-05-21T02:38:14.117Z,90.61
2023-05-21T02:41:16.946Z,90.34
2023-05-21T02:44:21.001Z,90.74
2023-05-21T02:47:24.367Z,91.16
2023-05-21T02:50:27.331Z,93.22
2023-05-21T02:53:30.264Z,93.23
2023-05-21T02:56:33.202Z,92.16
2023-05-21T02:59:36.052Z,91.31
2023-05-21T03:02:38.979Z,90.86
2023-05-21T03:05:42.026Z,90.78
2023-05-21T03:08:44.877Z,91.23
2023-05-21T03:11:48.451Z,92.28
2023-05-21T03:14:51.549Z,91.34
2023-05-21T03:17:55.740Z,90.77
2023-05-21T03:20:59.165Z,90.79
2023-05-21T03:24:02.978Z,90.61
2023-05-21T03:27:09.293Z,90.56
2023-05-21T03:30:12.713Z,90.37
2023-05-21T03:33:16.512Z,89.87
2023-05-21T03:36:20.219Z,88.87
2023-05-21T03:39:23.129Z,88.36
2023-05-21T03:42:26.281Z,87.71
2023-05-21T03:45:29.133Z,87.05
2023-05-21T03:48:32.023Z,86.09
2023-05-21T03:51:34.829Z,84.42
2023-05-21T03:54:37.796Z,84.22
2023-05-21T03:57:41.431Z,82.41
2023-05-21T04:00:45.611Z,82.24
2023-05-21T04:03:48.702Z,75.09
2023-05-21T04:06:51.876Z,72.62
2023-05-21T04:09:54.712Z,72.79
2023-05-21T04:12:57.558Z,72.77
2023-05-21T04:16:00.752Z,71.43
2023-05-21T04:19:03.927Z,69.72
2023-05-21T04:22:06.813Z,68.87
2023-05-21T04:25:10.120Z,66.68
2023-05-21T04:28:12.903Z,64.22
2023-05-21T04:31:15.854Z,63.26
2023-05-21T04:34:18.957Z,61.83
2023-05-21T04:37:24.733Z,62.75
2023-05-21T04:40:27.677Z,61.95
2023-05-21T04:43:32.197Z,59.32
2023-05-21T04:46:35.442Z,61.50
2023-05-21T04:49:38.422Z,60.30
2023-05-21T04:52:41.437Z,59.41
2023-05-21T04:55:44.307Z,61.49
2023-05-21T04:58:48.239Z,61.06
2023-05-21T05:01:51.090Z,60.97
2023-05-21T05:04:54.019Z,61.37
2023-05-21T05:07:58.334Z,61.71
2023-05-21T05:11:01.207Z,61.96
2023-05-21T05:14:04.070Z,62.30
2023-05-21T05:17:10.027Z,62.67
2023-05-21T05:20:13.070Z,63.06
2023-05-21T05:23:16.006Z,63.85
2023-05-21T05:26:18.946Z,64.17
2023-05-21T05:29:21.925Z,63.62
2023-05-21T05:32:24.878Z,65.03
2023-05-21T05:35:27.796Z,65.44
2023-05-21T05:38:31.386Z,65.30
2023-05-21T05:41:34.410Z,65.24
2023-05-21T05:44:37.279Z,64.68
2023-05-21T05:47:40.276Z,64.51
2023-05-21T05:50:43.378Z,64.11
2023-05-21T05:53:46.223Z,63.72
2023-05-21T05:56:49.050Z,63.57
2023-05-21T05:59:51.925Z,62.74
2023-05-21T06:02:54.867Z,62.41
2023-05-21T06:05:57.970Z,62.74
2023-05-21T06:09:01.135Z,62.37
2023-05-21T06:12:04.969Z,61.91
2023-05-21T06:15:08.561Z,62.30
2023-05-21T06:18:11.854Z,61.87
2023-05-21T06:21:15.015Z,62.06
2023-05-21T06:24:17.888Z,61.53
2023-05-21T06:27:21.025Z,61.23
2023-05-21T06:30:24.305Z,60.88
2023-05-21T06:33:30.198Z,60.81
2023-05-21T06:36:33.516Z,60.08
2023-05-21T06:39:36.492Z,59.93
2023-05-21T06:42:39.887Z,60.10
2023-05-21T06:45:42.868Z,59.85
2023-05-21T06:48:46.740Z,59.54
2023-05-21T06:51:49.755Z,59.48
2023-05-21T06:54:52.874Z,59.40
2023-05-21T06:57:57.908Z,59.24
2023-05-21T07:01:01.596Z,59.70
2023-05-21T07:04:04.821Z,59.51
2023-05-21T07:07:07.732Z,59.50
2023-05-21T07:10:11.139Z,59.79
2023-05-21T07:13:14.147Z,59.76
2023-05-21T07:16:18.119Z,59.55
2023-05-21T07:19:21.348Z,59.37
2023-05-21T07:22:25.955Z,59.31
2023-05-21T07:25:30.729Z,59.65
2023-05-21T07:28:33.685Z,59.54
2023-05-21T07:31:37.610Z,59.81
2023-05-21T07:34:40.599Z,60.52
2023-05-21T07:37:43.716Z,60.34
2023-05-21T07:40:46.602Z,60.59
2023-05-21T07:43:49.674Z,61.02
2023-05-21T07:46:52.537Z,61.38
2023-05-21T07:49:55.624Z,60.93
2023-05-21T07:52:58.886Z,61.48
2023-05-21T07:56:01.938Z,61.49
2023-05-21T07:59:05.058Z,61.70
2023-05-21T08:02:08.134Z,61.57
2023-05-21T08:05:11.159Z,62.22
2023-05-21T08:08:23.736Z,61.94
2023-05-21T08:11:27.094Z,61.52
2023-05-21T08:14:30.055Z,61.10
2023-05-21T08:17:33.016Z,60.81
2023-05-21T08:20:36.140Z,60.69
2023-05-21T08:23:39.066Z,61.11
2023-05-21T08:26:41.940Z,60.85
2023-05-21T08:29:45.336Z,60.53
2023-05-21T08:32:49.393Z,61.00
2023-05-21T08:35:52.355Z,60.39
2023-05-21T08:38:55.291Z,59.76
2023-05-21T08:42:12.155Z,60.15
2023-05-21T08:45:21.298Z,60.60
2023-05-21T08:48:24.671Z,60.16
2023-05-21T08:51:28.472Z,59.56
2023-05-21T08:54:31.541Z,60.41
2023-05-21T08:57:34.964Z,60.15
2023-05-21T09:00:37.884Z,59.75
2023-05-21T09:03:41.321Z,59.82
2023-05-21T09:06:45.079Z,59.93
2023-05-21T09:09:55.460Z,59.60
2023-05-21T09:12:59.526Z,59.43
2023-05-21T09:16:02.386Z,59.80
2023-05-21T09:19:05.494Z,59.51
2023-05-21T09:22:08.553Z,60.25
2023-05-21T09:25:13.410Z,60.12
2023-05-21T09:28:19.295Z,59.78
2023-05-21T09:31:24.213Z,59.48
2023-05-21T09:34:28.189Z,59.23
2023-05-21T09:37:31.718Z,58.92
2023-05-21T09:40:35.617Z,59.63
2023-05-21T09:43:38.945Z,59.92
2023-05-21T09:46:42.957Z,59.38
2023-05-21T09:49:45.922Z,58.40
2023-05-21T09:52:55.661Z,58.06
2023-05-21T09:55:59.926Z,58.16
2023-05-21T09:59:06.927Z,57.79
2023-05-21T10:02:23.475Z,58.29
2023-05-21T10:05:30.163Z,57.40
2023-05-21T10:08:36.949Z,57.65
2023-05-21T10:11:41.098Z,57.08
2023-05-21T10:14:51.180Z,56.70
2023-05-21T10:17:56.507Z,56.82
2023-05-21T10:21:01.161Z,56.05
2023-05-21T10:24:05.160Z,55.89
2023-05-21T10:27:08.177Z,55.24
2023-05-21T10:30:11.863Z,55.31
2023-05-21T10:33:17.183Z,55.02
2023-05-21T10:36:20.809Z,54.85
2023-05-21T10:39:25.657Z,54.69
2023-05-21T10:42:31.319Z,54.95
2023-05-21T10:45:51.342Z,55.11
2023-05-21T10:49:19.299Z,54.09
2023-05-21T10:52:32.206Z,54.13
2023-05-21T10:55:45.733Z,53.12
2023-05-21T10:58:57.818Z,52.40
2023-05-21T11:02:01.918Z,52.65
2023-05-21T11:05:05.398Z,52.41
2023-05-21T11:08:37.129Z,52.74
2023-05-21T11:11:50.964Z,52.44
2023-05-21T11:14:58.287Z,52.57
2023-05-21T11:18:01.404Z,53.06
2023-05-21T11:21:10.394Z,51.89
2023-05-21T11:24:19.435Z,52.54
2023-05-21T11:27:42.074Z,51.15
2023-05-21T11:31:27.014Z,51.98
2023-05-21T11:34:46.041Z,52.04
2023-05-21T11:37:54.031Z,52.50
2023-05-21T11:41:03.234Z,51.18
2023-05-21T11:44:09.109Z,50.65
2023-05-21T11:47:15.177Z,50.40
2023-05-21T11:50:18.900Z,50.01
2023-05-21T11:53:22.224Z,50.71
2023-05-21T11:56:25.950Z,50.89
2023-05-21T11:59:29.001Z,50.50
2023-05-21T12:02:33.081Z,49.89
2023-05-21T12:05:48.847Z,49.19
2023-05-21T12:08:52.797Z,48.66
2023-05-21T12:11:55.825Z,48.15
2023-05-21T12:14:59.391Z,47.70
2023-05-21T12:18:03.118Z,47.55
2023-05-21T12:21:07.059Z,47.15
2023-05-21T12:24:09.971Z,47.03
2023-05-21T12:27:13.925Z,47.16
2023-05-21T12:30:17.035Z,46.57
2023-05-21T12:33:20.125Z,46.49
2023-05-21T12:36:27.136Z,45.73
2023-05-21T12:39:31.520Z,45.77
2023-05-21T12:42:37.543Z,44.98
2023-05-21T12:45:40.966Z,44.88
2023-05-21T12:48:51.647Z,44.75
2023-05-21T12:51:57.140Z,44.53
2023-05-21T12:55:00.259Z,43.47
2023-05-21T12:58:08.790Z,43.16
2023-05-21T13:01:12.580Z,43.78
2023-05-21T13:04:15.644Z,43.96
2023-05-21T13:07:18.777Z,43.76
2023-05-21T13:10:21.846Z,44.40
2023-05-21T13:13:24.754Z,43.15
2023-05-21T13:16:27.758Z,42.91
2023-05-21T13:19:30.912Z,42.95
2023-05-21T13:22:34.300Z,42.55
2023-05-21T13:25:37.293Z,42.11
2023-05-21T13:28:42.399Z,41.47
2023-05-21T13:31:45.891Z,41.36
2023-05-21T13:34:48.820Z,40.80
2023-05-21T13:37:51.771Z,41.27
2023-05-21T13:40:54.757Z,41.09
2023-05-21T13:43:58.133Z,41.91
2023-05-21T13:47:01.170Z,41.13
2023-05-21T13:50:04.499Z,41.05
2023-05-21T13:53:07.445Z,42.03
2023-05-21T13:56:10.525Z,42.41
2023-05-21T13:59:13.474Z,43.05
2023-05-21T14:02:16.658Z,43.59
2023-05-21T14:05:19.730Z,42.99
2023-05-21T14:08:23.830Z,43.49
2023-05-21T14:11:28.184Z,43.69
2023-05-21T14:14:31.599Z,43.84
2023-05-21T14:17:34.586Z,43.65
2023-05-21T14:20:39.955Z,42.88
2023-05-21T14:23:42.953Z,43.17
2023-05-21T14:26:46.270Z,42.65
2023-05-21T14:29:49.345Z,42.77
2023-05-21T14:32:52.302Z,42.52
2023-05-21T14:35:55.419Z,42.89
2023-05-21T14:38:58.381Z,43.03
2023-05-21T14:42:04.794Z,43.88
2023-05-21T14:45:20.471Z,43.80
2023-05-21T14:48:24.168Z,43.76
2023-05-21T14:51:27.448Z,44.16
2023-05-21T14:54:30.531Z,44.72
2023-05-21T14:57:33.488Z,43.96
2023-05-21T15:00:37.002Z,44.53
2023-05-21T15:03:40.130Z,45.09
2023-05-21T15:06:43.182Z,45.26
2023-05-21T15:09:47.546Z,44.31
2023-05-21T15:12:51.422Z,44.71
2023-05-21T15:15:54.520Z,44.61
2023-05-21T15:18:57.640Z,44.77
2023-05-21T15:22:00.649Z,44.12
2023-05-21T15:25:04.264Z,43.63
2023-05-21T15:28:07.253Z,43.46
2023-05-21T15:31:10.416Z,43.07
2023-05-21T15:34:13.854Z,42.02
2023-05-21T15:37:17.231Z,41.19
2023-05-21T15:40:20.303Z,40.13
2023-05-21T15:43:23.261Z,40.16
2023-05-21T15:46:28.575Z,39.61
2023-05-21T15:49:31.611Z,40.16
2023-05-21T15:52:34.653Z,39.65
2023-05-21T15:55:37.992Z,39.37
2023-05-21T15:58:41.167Z,40.24
2023-05-21T16:01:44.570Z,40.71
2023-05-21T16:04:51.510Z,40.75
2023-05-21T16:07:54.769Z,40.86
2023-05-21T16:10:57.762Z,40.25
2023-05-21T16:14:00.867Z,40.56
2023-05-21T16:17:03.987Z,41.15
2023-05-21T16:20:07.770Z,40.99
2023-05-21T16:23:14.314Z,41.15
2023-05-21T16:26:17.474Z,41.08
2023-05-21T16:29:22.159Z,40.29
2023-05-21T16:32:25.617Z,40.30
2023-05-21T16:35:28.938Z,40.37
2023-05-21T16:38:32.290Z,40.06
2023-05-21T16:41:39.508Z,41.23
2023-05-21T16:45:43.379Z,41.63
2023-05-21T16:49:46.789Z,41.81
2023-05-21T16:57:20.894Z,42.42
2023-05-21T17:00:29.613Z,42.53
2023-05-21T17:03:33.736Z,42.42
2023-05-21T17:06:42.544Z,42.78
2023-05-21T17:10:02.121Z,42.48
2023-05-21T17:13:21.325Z,42.23
2023-05-21T17:16:29.711Z,42.44
2023-05-21T17:19:35.677Z,41.50
2023-05-21T17:22:39.576Z,41.12
2023-05-21T17:26:04.643Z,41.43
2023-05-21T17:29:07.345Z,41.85
2023-05-21T17:32:12.791Z,42.55
2023-05-21T17:35:19.366Z,43.28
2023-05-21T17:38:23.090Z,43.54
2023-05-21T17:41:28.538Z,44.14
2023-05-21T17:44:31.738Z,44.68
2023-05-21T17:47:35.605Z,45.08
2023-05-21T17:50:38.938Z,45.46
2023-05-21T17:53:41.978Z,46.10
2023-05-21T17:56:46.565Z,46.26
2023-05-21T17:59:50.124Z,46.77
2023-05-21T18:02:53.018Z,47.08
2023-05-21T18:05:56.801Z,47.40
2023-05-21T18:08:59.722Z,47.72
2023-05-21T18:12:04.500Z,48.06
2023-05-21T18:15:11.337Z,48.54
2023-05-21T18:18:19.755Z,48.71
2023-05-21T18:21:28.368Z,49.23
2023-05-21T18:24:31.408Z,49.47
2023-05-21T18:28:00.241Z,50.07
2023-05-21T18:31:27.198Z,50.54
2023-05-21T18:34:56.526Z,50.88
2023-05-21T18:38:00.159Z,51.01
2023-05-21T18:41:29.254Z,51.44
2023-05-21T18:44:41.388Z,51.77
2023-05-21T18:48:08.078Z,52.35
2023-05-21T18:51:36.674Z,52.73
2023-05-21T18:55:08.543Z,53.08
2023-05-21T18:58:23.963Z,53.39
2023-05-21T19:01:34.217Z,53.95
2023-05-21T19:04:52.847Z,53.95
2023-05-21T19:08:25.267Z,54.17
2023-05-21T19:11:45.239Z,54.68
2023-05-21T19:14:50.611Z,54.94
2023-05-21T19:18:15.219Z,55.09
2023-05-21T19:21:33.506Z,55.60
2023-05-21T19:25:01.006Z,55.64
2023-05-21T19:28:45.823Z,56.13
2023-05-21T19:32:04.116Z,56.93
2023-05-21T19:35:11.917Z,57.28
2023-05-21T19:38:50.095Z,57.52
2023-05-21T19:42:26.047Z,57.77
2023-05-21T19:45:34.103Z,58.07
2023-05-21T19:48:42.472Z,58.55
2023-05-21T19:52:10.666Z,59.17
2023-05-21T19:55:21.624Z,59.58
2023-05-21T19:58:30.497Z,59.76
2023-05-21T20:01:40.074Z,60.02
2023-05-21T20:04:43.999Z,60.60
2023-05-21T20:07:56.094Z,60.94
2023-05-21T20:11:10.360Z,61.22
2023-05-21T20:14:16.409Z,61.94
2023-05-21T20:17:42.217Z,62.11
2023-05-21T20:20:56.890Z,62.03
2023-05-21T20:24:22.674Z,62.27
2023-05-21T20:27:32.252Z,62.52
2023-05-21T20:31:13.279Z,63.70
2023-05-21T20:35:02.696Z,64.44
2023-05-21T20:38:47.381Z,63.54
2023-05-21T20:43:33.671Z,64.01
2023-05-21T20:47:23.599Z,64.22
2023-05-21T20:50:58.059Z,64.39
2023-05-21T20:54:23.332Z,64.44
2023-05-21T20:58:07.234Z,64.67
2023-05-21T21:01:18.769Z,64.91
2023-05-21T21:04:24.807Z,64.96
2023-05-21T21:08:15.324Z,65.20
2023-05-21T21:11:43.781Z,65.59
2023-05-21T21:15:28.759Z,65.68
2023-05-21T21:19:12.994Z,66.00
2023-05-21T21:22:49.614Z,66.43
2023-05-21T21:26:37.536Z,66.45
2023-05-21T21:30:09.283Z,66.67
2023-05-21T21:33:29.217Z,66.71
2023-05-21T21:36:54.204Z,66.71
2023-05-21T21:40:14.760Z,67.27
2023-05-21T21:43:40.250Z,67.01
2023-05-21T21:47:54.536Z,67.65
2023-05-21T21:51:16.937Z,67.82
2023-05-21T21:54:43.036Z,68.21
2023-05-21T21:58:02.132Z,68.57
2023-05-21T22:01:27.801Z,69.76
2023-05-21T22:05:09.410Z,69.90
2023-05-21T22:08:38.245Z,70.58
2023-05-21T22:12:39.158Z,69.75
2023-05-21T22:15:42.130Z,69.68
2023-05-21T22:19:13.556Z,70.46
2023-05-21T22:22:39.458Z,70.67
2023-05-21T22:25:59.423Z,71.02
2023-05-21T22:29:20.399Z,71.58
2023-05-21T22:32:46.935Z,71.87
2023-05-21T22:35:58.616Z,72.26
2023-05-21T22:39:19.840Z,72.16
2023-05-21T22:42:45.069Z,71.94
2023-05-21T22:46:22.460Z,71.80
2023-05-21T22:50:08.148Z,72.27
2023-05-21T22:53:49.632Z,72.63
2023-05-21T22:57:05.221Z,72.82
2023-05-21T23:00:31.927Z,73.19
2023-05-21T23:03:52.593Z,72.30
2023-05-21T23:07:27.157Z,72.88
2023-05-21T23:10:55.098Z,73.53
2023-05-21T23:14:16.753Z,73.53
2023-05-21T23:18:12.138Z,74.61
2023-05-21T23:21:47.390Z,75.24
2023-05-21T23:25:43.834Z,75.63
2023-05-21T23:28:58.762Z,75.06
2023-05-21T23:32:12.844Z,75.02
2023-05-21T23:35:59.419Z,78.17
2023-05-21T23:39:29.487Z,77.35
2023-05-21T23:42:59.067Z,75.73
2023-05-21T23:46:20.821Z,75.73
2023-05-21T23:50:24.343Z,76.39
2023-05-21T23:54:31.905Z,76.53
2023-05-21T23:57:51.655Z,76.63
